Time;durP1;ratioP1;P1;durP2;ratioP2;P2;SDS_P1;SDS_P2;PMS_P1;PMS_P2;Temp;Humidity;BMP_temperature;BMP_pressure;BME280_temperature;BME280_humidity;BME280_pressure;Samples;Min_cycle;Max_cycle;Signal;HPM_P1;HPM_P2
2023/05/22 00:00:18;;;;;;;34.83;24.95;;;18.40;99.90;;;;;;5031434;28;20040;-79
2023/05/22 00:02:43;;;;;;;29.98;25.40;;;18.40;99.90;;;;;;5015733;28;20107;-79
2023/05/22 00:05:13;;;;;;;30.60;25.23;;;18.40;99.90;;;;;;5029461;28;20080;-79
2023/05/22 00:07:41;;;;;;;31.85;25.00;;;18.40;99.90;;;;;;5033260;28;20044;-79
2023/05/22 00:10:07;;;;;;;32.97;25.92;;;18.30;99.90;;;;;;5031714;28;20057;-79
2023/05/22 00:12:33;;;;;;;32.45;25.05;;;18.40;99.90;;;;;;5031664;28;20049;-79
2023/05/22 00:15:03;;;;;;;36.95;26.52;;;18.30;99.90;;;;;;5009250;28;20056;-79
2023/05/22 00:17:32;;;;;;;30.95;23.98;;;18.30;99.90;;;;;;5031000;28;20489;-79
2023/05/22 00:20:03;;;;;;;32.88;25.90;;;18.30;99.90;;;;;;5025579;28;20057;-79
2023/05/22 00:22:30;;;;;;;32.28;26.17;;;18.90;99.90;;;;;;5010631;28;20049;-79
2023/05/22 00:24:56;;;;;;;29.80;24.88;;;18.30;99.90;;;;;;5028786;28;20034;-79
2023/05/22 00:27:22;;;;;;;31.15;23.45;;;18.30;99.90;;;;;;5003994;28;20076;-79
2023/05/22 00:29:48;;;;;;;31.88;24.13;;;18.30;99.90;;;;;;5012487;28;20468;-79
2023/05/22 00:32:13;;;;;;;31.35;24.50;;;18.50;99.90;;;;;;5023880;28;20026;-80
2023/05/22 00:34:39;;;;;;;32.53;24.88;;;18.20;99.90;;;;;;5027476;28;20092;-80
2023/05/22 00:37:04;;;;;;;32.47;23.77;;;18.20;99.90;;;;;;5022981;28;20046;-79
2023/05/22 00:39:30;;;;;;;33.30;23.98;;;18.30;99.90;;;;;;5010886;28;20042;-80
2023/05/22 00:41:56;;;;;;;30.30;23.60;;;18.20;99.90;;;;;;5032877;28;20041;-80
2023/05/22 00:44:22;;;;;;;27.60;22.05;;;18.30;99.90;;;;;;5034082;28;20501;-79
2023/05/22 00:46:48;;;;;;;30.83;22.70;;;18.30;99.90;;;;;;5022959;28;20057;-79
2023/05/22 00:49:13;;;;;;;28.92;23.17;;;18.20;99.90;;;;;;5021619;28;20041;-79
2023/05/22 00:51:39;;;;;;;28.88;23.63;;;18.10;99.90;;;;;;5026734;28;20055;-79
2023/05/22 00:54:05;;;;;;;28.88;23.10;;;18.10;99.90;;;;;;5023026;28;20034;-79
2023/05/22 00:56:32;;;;;;;32.97;24.30;;;18.10;99.90;;;;;;5015994;28;20131;-79
2023/05/22 00:58:58;;;;;;;26.98;22.00;;;18.10;99.90;;;;;;5026599;28;20045;-79
2023/05/22 01:01:25;;;;;;;34.53;23.13;;;18.20;99.90;;;;;;5028886;28;20044;-79
2023/05/22 01:03:52;;;;;;;28.42;23.15;;;18.10;99.90;;;;;;5022430;28;20550;-79
2023/05/22 01:06:20;;;;;;;28.65;22.90;;;17.90;99.90;;;;;;5032805;28;20044;-81
2023/05/22 01:08:47;;;;;;;27.65;22.95;;;18.50;99.90;;;;;;5016772;28;20041;-81
2023/05/22 01:11:21;;;;;;;28.23;22.63;;;17.50;99.90;;;;;;5006361;28;20497;-81
2023/05/22 01:14:13;;;;;;;32.25;23.42;;;18.40;99.90;;;;;;5017216;28;20051;-81
2023/05/22 01:16:51;;;;;;;27.83;22.52;;;18.00;99.90;;;;;;5005968;28;20184;-81
2023/05/22 01:19:46;;;;;;;30.23;23.45;;;18.00;99.90;;;;;;5005565;28;20072;-79
2023/05/22 01:22:45;;;;;;;31.77;24.73;;;18.00;99.90;;;;;;5026039;28;20099;-80
2023/05/22 01:25:20;;;;;;;32.40;25.77;;;17.90;99.90;;;;;;5005891;28;20064;-80
2023/05/22 01:28:01;;;;;;;30.40;26.13;;;17.90;99.90;;;;;;5019823;28;20371;-81
2023/05/22 01:30:47;;;;;;;30.45;24.55;;;18.20;99.90;;;;;;5030916;28;20176;-80
2023/05/22 01:33:17;;;;;;;31.70;25.17;;;17.90;99.90;;;;;;5025807;28;20120;-80
2023/05/22 01:35:50;;;;;;;30.48;24.95;;;17.90;99.90;;;;;;5026563;28;20433;-81
2023/05/22 01:38:16;;;;;;;30.35;25.15;;;17.90;99.90;;;;;;5024214;28;20112;-80
2023/05/22 01:40:44;;;;;;;31.77;25.40;;;17.90;99.90;;;;;;5018938;28;20077;-80
2023/05/22 01:43:11;;;;;;;32.53;26.27;;;17.90;99.90;;;;;;5020167;28;20389;-80
2023/05/22 01:45:37;;;;;;;31.10;25.05;;;18.00;99.90;;;;;;5025651;28;20048;-80
2023/05/22 01:48:02;;;;;;;30.02;25.33;;;17.80;99.90;;;;;;5027983;28;20029;-81
2023/05/22 01:50:28;;;;;;;32.42;26.77;;;17.80;99.90;;;;;;5014451;28;20143;-80
2023/05/22 01:53:14;;;;;;;31.73;26.67;;;17.80;99.90;;;;;;5021618;28;20397;-80
2023/05/22 01:55:46;;;;;;;36.97;26.80;;;17.80;99.90;;;;;;5020735;28;20068;-80
2023/05/22 01:58:36;;;;;;;29.40;24.88;;;17.80;99.90;;;;;;5032181;28;20044;-80
2023/05/22 02:01:03;;;;;;;32.70;26.02;;;17.80;99.90;;;;;;5006651;28;20057;-79
2023/05/22 02:03:35;;;;;;;33.70;26.00;;;17.80;99.90;;;;;;5024785;28;20497;-80
2023/05/22 02:06:04;;;;;;;32.50;26.38;;;18.40;99.90;;;;;;5025228;28;20438;-79
2023/05/22 02:08:30;;;;;;;34.78;26.63;;;17.80;99.90;;;;;;5015065;28;20033;-79
2023/05/22 02:10:58;;;;;;;31.50;26.35;;;17.70;99.90;;;;;;5013990;28;20052;-79
2023/05/22 02:13:24;;;;;;;34.28;28.27;;;17.70;99.90;;;;;;5030630;28;20042;-80
2023/05/22 02:15:50;;;;;;;34.88;28.00;;;17.60;99.90;;;;;;5000220;28;20081;-80
2023/05/22 02:18:16;;;;;;;34.92;28.27;;;17.70;99.90;;;;;;5018381;28;20037;-80
2023/05/22 02:20:42;;;;;;;35.70;27.40;;;17.80;99.90;;;;;;5029196;28;20048;-80
2023/05/22 02:23:08;;;;;;;33.80;27.45;;;17.70;99.90;;;;;;5015093;28;20042;-80
2023/05/22 02:25:35;;;;;;;36.60;27.77;;;17.70;99.90;;;;;;5013996;28;20393;-80
2023/05/22 02:28:01;;;;;;;37.03;27.08;;;17.60;99.90;;;;;;5023217;28;20502;-80
2023/05/22 02:30:27;;;;;;;34.45;27.40;;;17.70;99.90;;;;;;5026732;28;20041;-80
2023/05/22 02:32:53;;;;;;;33.30;28.25;;;17.70;99.90;;;;;;5005820;28;20046;-80
2023/05/22 02:35:18;;;;;;;33.30;26.92;;;17.90;99.90;;;;;;5018944;28;20061;-80
2023/05/22 02:37:44;;;;;;;34.42;26.73;;;17.70;99.90;;;;;;5007940;28;20041;-80
2023/05/22 02:40:10;;;;;;;33.80;27.35;;;17.60;99.90;;;;;;5029369;28;20172;-80
2023/05/22 02:42:36;;;;;;;32.20;27.25;;;17.60;99.90;;;;;;5023077;28;20036;-80
2023/05/22 02:45:02;;;;;;;34.83;27.77;;;17.90;99.90;;;;;;5021008;28;20038;-80
2023/05/22 02:47:27;;;;;;;36.53;28.60;;;17.60;99.90;;;;;;5026866;28;20029;-79
2023/05/22 02:49:53;;;;;;;37.58;29.83;;;18.20;99.90;;;;;;5020992;28;20037;-79
2023/05/22 02:52:19;;;;;;;37.45;28.98;;;18.40;99.90;;;;;;5023882;28;20424;-79
2023/05/22 02:54:45;;;;;;;37.60;30.98;;;18.00;99.90;;;;;;5025249;28;20119;-79
2023/05/22 02:57:10;;;;;;;43.38;31.60;;;17.60;99.90;;;;;;5027914;28;20045;-79
2023/05/22 02:59:39;;;;;;;37.38;30.35;;;18.00;99.90;;;;;;5007733;28;20064;-79
2023/05/22 03:02:06;;;;;;;37.60;30.58;;;18.30;99.90;;;;;;5020151;28;20613;-80
2023/05/22 03:04:31;;;;;;;37.20;30.08;;;17.60;99.90;;;;;;5026037;28;20071;-80
2023/05/22 03:06:57;;;;;;;36.75;30.05;;;17.60;99.90;;;;;;5028814;28;20076;-80
2023/05/22 03:09:23;;;;;;;38.80;31.00;;;17.90;99.90;;;;;;5006917;28;20038;-79
2023/05/22 03:11:49;;;;;;;37.40;31.00;;;17.80;99.90;;;;;;5023106;28;20037;-79
2023/05/22 03:14:15;;;;;;;37.65;30.45;;;17.80;99.90;;;;;;5017291;28;20093;-80
2023/05/22 03:16:41;;;;;;;39.80;32.20;;;17.60;99.90;;;;;;5010480;28;20076;-80
2023/05/22 03:19:09;;;;;;;39.53;31.92;;;17.70;99.90;;;;;;5019936;28;20073;-80
2023/05/22 03:21:35;;;;;;;36.65;30.27;;;18.30;99.90;;;;;;5010436;28;20088;-79
2023/05/22 03:24:01;;;;;;;38.08;30.42;;;18.30;99.90;;;;;;5021469;28;20045;-80
2023/05/22 03:26:27;;;;;;;36.40;30.55;;;18.00;99.90;;;;;;5025479;28;20037;-80
2023/05/22 03:28:53;;;;;;;35.92;30.17;;;17.50;99.90;;;;;;5027733;28;20041;-80
2023/05/22 03:31:19;;;;;;;37.63;30.10;;;17.50;99.90;;;;;;5022091;28;20042;-80
2023/05/22 03:33:44;;;;;;;37.67;30.33;;;17.70;99.90;;;;;;5012987;28;20041;-80
2023/05/22 03:36:10;;;;;;;37.67;30.75;;;17.50;99.90;;;;;;5030525;28;20420;-80
2023/05/22 03:38:36;;;;;;;38.22;31.60;;;17.60;99.90;;;;;;5023337;28;20052;-81
2023/05/22 03:41:06;;;;;;;38.55;30.90;;;17.50;99.90;;;;;;5027770;28;20513;-80
2023/05/22 03:43:32;;;;;;;38.20;33.03;;;17.50;99.90;;;;;;5026248;28;20084;-80
2023/05/22 03:45:58;;;;;;;38.78;32.35;;;17.40;99.90;;;;;;5017071;28;20030;-79
2023/05/22 03:48:24;;;;;;;40.90;32.08;;;17.40;99.90;;;;;;5029831;28;20562;-79
2023/05/22 03:50:50;;;;;;;39.72;32.15;;;17.70;99.90;;;;;;5030410;28;20041;-80
2023/05/22 03:53:16;;;;;;;38.70;31.55;;;17.40;99.90;;;;;;5019181;28;20045;-79
2023/05/22 03:55:41;;;;;;;40.83;31.58;;;17.50;99.90;;;;;;5022176;28;20076;-80
2023/05/22 03:58:07;;;;;;;41.35;32.95;;;17.40;99.90;;;;;;5020523;28;20073;-81
2023/05/22 04:00:33;;;;;;;41.58;33.47;;;17.60;99.90;;;;;;5027439;28;20105;-80
2023/05/22 04:02:59;;;;;;;40.50;32.60;;;18.30;99.90;;;;;;5006006;28;20049;-79
2023/05/22 04:05:25;;;;;;;39.40;31.52;;;17.40;99.90;;;;;;5016696;28;20041;-79
2023/05/22 04:07:50;;;;;;;43.17;32.92;;;17.50;99.90;;;;;;5012337;28;20040;-79
2023/05/22 04:10:16;;;;;;;43.30;32.08;;;17.80;99.90;;;;;;5007000;28;20038;-79
2023/05/22 04:12:42;;;;;;;40.65;32.75;;;17.40;99.90;;;;;;5022362;28;20493;-80
2023/05/22 04:15:10;;;;;;;43.13;33.15;;;17.40;99.90;;;;;;5019647;28;20402;-79
2023/05/22 04:17:39;;;;;;;40.90;32.90;;;17.40;99.90;;;;;;5019700;28;20060;-79
2023/05/22 04:20:05;;;;;;;42.60;33.63;;;17.40;99.90;;;;;;5027569;28;20073;-79
2023/05/22 04:22:32;;;;;;;40.13;31.92;;;17.40;99.90;;;;;;5027926;28;20061;-79
2023/05/22 04:24:58;;;;;;;38.05;31.63;;;17.70;99.90;;;;;;5028079;28;20048;-79
2023/05/22 04:27:25;;;;;;;37.00;31.02;;;17.40;99.90;;;;;;5003541;28;20030;-80
2023/05/22 04:29:51;;;;;;;36.67;31.15;;;17.40;99.90;;;;;;5017570;28;20072;-80
2023/05/22 04:32:20;;;;;;;39.53;30.90;;;17.40;99.90;;;;;;5037329;28;20037;-80
2023/05/22 04:34:49;;;;;;;37.38;31.10;;;17.50;99.90;;;;;;5019772;28;20038;-80
2023/05/22 04:37:17;;;;;;;38.92;31.52;;;17.80;99.90;;;;;;5033001;28;20508;-80
2023/05/22 04:39:44;;;;;;;37.63;31.23;;;17.40;99.90;;;;;;5026245;28;20120;-80
2023/05/22 04:42:13;;;;;;;39.15;30.95;;;17.40;99.90;;;;;;5015211;28;20038;-80
2023/05/22 04:44:40;;;;;;;41.10;30.35;;;17.40;99.90;;;;;;5032468;28;20041;-80
2023/05/22 04:47:10;;;;;;;42.17;30.80;;;17.40;99.90;;;;;;5027900;28;20052;-80
2023/05/22 04:49:37;;;;;;;40.08;32.00;;;17.40;99.90;;;;;;5011672;28;20042;-80
2023/05/22 04:52:04;;;;;;;41.33;32.63;;;18.20;99.90;;;;;;5027340;28;20048;-80
2023/05/22 04:54:30;;;;;;;38.50;31.10;;;17.40;99.90;;;;;;5010718;28;20061;-79
2023/05/22 04:56:56;;;;;;;39.22;33.13;;;17.50;99.90;;;;;;5023012;28;20514;-79
2023/05/22 04:59:25;;;;;;;36.45;31.45;;;17.40;99.90;;;;;;5031583;28;20053;-79
2023/05/22 05:01:51;;;;;;;37.42;31.70;;;17.50;99.90;;;;;;5023505;28;20048;-79
2023/05/22 05:04:17;;;;;;;41.05;31.48;;;17.40;99.90;;;;;;5027603;28;20220;-79
2023/05/22 05:06:43;;;;;;;35.30;30.30;;;17.60;99.90;;;;;;5024858;28;20120;-79
2023/05/22 05:09:09;;;;;;;39.83;31.88;;;17.40;99.90;;;;;;5029310;28;20123;-79
2023/05/22 05:11:35;;;;;;;38.03;31.33;;;17.40;99.90;;;;;;5024708;28;20040;-80
2023/05/22 05:14:01;;;;;;;38.00;30.33;;;17.40;99.90;;;;;;5026678;28;20045;-80
2023/05/22 05:16:27;;;;;;;38.50;30.15;;;17.80;99.90;;;;;;5024622;28;20096;-79
2023/05/22 05:18:54;;;;;;;40.25;30.35;;;17.40;99.90;;;;;;5015304;28;20034;-79
2023/05/22 05:21:26;;;;;;;37.00;30.27;;;17.70;99.90;;;;;;5029393;28;20037;-78
2023/05/22 05:23:52;;;;;;;34.75;29.27;;;18.30;99.90;;;;;;5001611;28;20117;-79
2023/05/22 05:26:20;;;;;;;35.83;28.80;;;17.50;99.90;;;;;;5025778;28;20125;-80
2023/05/22 05:28:46;;;;;;;36.55;29.33;;;17.50;99.90;;;;;;5020456;28;20038;-79
2023/05/22 05:31:11;;;;;;;38.13;29.77;;;17.50;99.90;;;;;;5021140;28;20459;-80
2023/05/22 05:33:37;;;;;;;35.60;28.95;;;18.10;99.90;;;;;;5019040;28;20032;-79
2023/05/22 05:36:03;;;;;;;37.30;29.73;;;17.40;99.90;;;;;;5014991;28;20037;-79
2023/05/22 05:38:28;;;;;;;34.25;29.73;;;17.50;99.90;;;;;;5012150;28;20041;-79
2023/05/22 05:40:54;;;;;;;36.28;30.58;;;18.20;99.90;;;;;;5019916;28;20038;-79
2023/05/22 05:43:19;;;;;;;37.90;29.25;;;17.70;99.90;;;;;;5022164;28;20044;-79
2023/05/22 05:48:13;;;;;;;37.65;29.23;;;17.50;99.90;;;;;;5046142;28;20056;-64
2023/05/22 05:50:38;;;;;;;37.20;29.45;;;17.60;99.90;;;;;;5048854;28;20024;-64
2023/05/22 05:53:04;;;;;;;34.80;28.13;;;17.60;99.90;;;;;;5034121;28;20067;-64
2023/05/22 05:55:31;;;;;;;37.92;27.60;;;17.60;99.90;;;;;;5026386;28;20068;-64
2023/05/22 05:57:57;;;;;;;37.33;28.98;;;17.70;99.90;;;;;;5034706;28;20041;-64
2023/05/22 06:00:22;;;;;;;33.65;27.50;;;17.70;99.90;;;;;;5022186;28;20025;-63
2023/05/22 06:02:48;;;;;;;38.33;28.63;;;17.80;99.90;;;;;;5041964;28;20037;-63
2023/05/22 06:05:16;;;;;;;34.65;27.52;;;17.70;99.90;;;;;;5026796;28;20047;-63
2023/05/22 06:07:42;;;;;;;31.23;26.92;;;17.70;99.90;;;;;;5029743;28;20073;-63
2023/05/22 06:10:09;;;;;;;33.80;26.65;;;17.70;99.90;;;;;;5029031;28;20075;-63
2023/05/22 06:12:36;;;;;;;38.75;28.85;;;17.80;99.90;;;;;;5022038;28;20099;-63
2023/05/22 06:15:04;;;;;;;30.45;26.95;;;17.80;99.90;;;;;;5048139;28;20044;-61
2023/05/22 06:17:30;;;;;;;34.45;28.15;;;17.80;99.90;;;;;;5030722;28;20087;-61
2023/05/22 06:19:55;;;;;;;33.40;27.20;;;17.80;99.90;;;;;;5048996;28;20081;-61
2023/05/22 06:22:24;;;;;;;33.13;26.08;;;17.80;99.90;;;;;;5042687;28;20072;-61
2023/05/22 06:24:53;;;;;;;34.15;28.13;;;17.90;99.90;;;;;;5008082;28;20039;-61
2023/05/22 06:27:23;;;;;;;31.63;27.23;;;17.90;99.90;;;;;;5046063;28;20124;-61
2023/05/22 06:29:49;;;;;;;33.60;25.65;;;17.90;99.90;;;;;;5048737;28;20078;-61
2023/05/22 06:32:15;;;;;;;33.45;26.45;;;17.90;99.90;;;;;;5047849;28;20087;-61
2023/05/22 06:34:43;;;;;;;33.72;26.80;;;17.90;99.90;;;;;;5018047;28;20076;-61
2023/05/22 06:37:10;;;;;;;34.33;27.63;;;17.90;99.90;;;;;;5030251;28;20071;-62
2023/05/22 06:39:36;;;;;;;32.25;27.27;;;17.90;99.90;;;;;;5057278;28;20041;-62
2023/05/22 06:42:02;;;;;;;29.73;26.38;;;18.00;99.90;;;;;;5034940;28;20064;-61
2023/05/22 06:44:27;;;;;;;29.45;26.17;;;18.00;99.90;;;;;;5049581;28;20131;-61
2023/05/22 06:46:53;;;;;;;30.52;26.85;;;18.00;99.90;;;;;;5012015;28;20041;-61
2023/05/22 06:49:19;;;;;;;33.22;26.92;;;18.00;99.90;;;;;;5051029;28;20041;-61
2023/05/22 06:51:45;;;;;;;30.83;26.17;;;18.10;99.90;;;;;;5032212;28;20127;-61
2023/05/22 06:54:12;;;;;;;30.88;26.10;;;18.10;99.90;;;;;;5041697;28;20044;-61
2023/05/22 06:56:39;;;;;;;32.38;26.17;;;18.10;99.90;;;;;;5049910;28;20475;-61
2023/05/22 06:59:04;;;;;;;33.20;26.33;;;18.10;99.90;;;;;;5043044;28;20039;-62
2023/05/22 07:01:30;;;;;;;30.35;27.02;;;18.10;99.90;;;;;;5040009;28;20037;-62
2023/05/22 07:04:00;;;;;;;31.60;26.60;;;18.10;99.90;;;;;;5046241;28;20045;-62
2023/05/22 07:06:26;;;;;;;30.27;26.10;;;18.10;99.90;;;;;;5057690;28;20037;-61
2023/05/22 07:08:52;;;;;;;32.45;26.80;;;18.10;99.90;;;;;;5050248;28;20039;-61
2023/05/22 07:11:17;;;;;;;30.15;25.52;;;18.10;99.90;;;;;;5032434;28;20049;-61
2023/05/22 07:13:43;;;;;;;28.58;24.52;;;18.10;99.90;;;;;;5045819;28;20071;-62
2023/05/22 07:16:09;;;;;;;29.48;24.42;;;18.10;99.90;;;;;;5050357;28;20044;-61
2023/05/22 07:18:34;;;;;;;32.08;24.95;;;18.10;99.90;;;;;;5049575;28;20460;-61
2023/05/22 07:21:00;;;;;;;28.13;23.73;;;18.00;99.90;;;;;;5044987;28;20091;-61
2023/05/22 07:23:26;;;;;;;31.48;25.35;;;18.10;99.90;;;;;;5023688;28;20041;-62
2023/05/22 07:25:51;;;;;;;31.10;24.85;;;18.00;99.90;;;;;;5049585;28;20037;-62
2023/05/22 07:28:17;;;;;;;34.38;25.00;;;18.00;99.90;;;;;;5050004;28;20036;-62
2023/05/22 07:30:43;;;;;;;29.20;24.13;;;18.00;99.90;;;;;;5034594;28;20064;-61
2023/05/22 07:33:09;;;;;;;27.20;23.20;;;18.00;99.90;;;;;;5032692;28;20419;-62
2023/05/22 07:35:34;;;;;;;28.67;24.05;;;18.00;99.90;;;;;;5046599;28;20072;-62
2023/05/22 07:38:00;;;;;;;28.92;22.60;;;17.90;99.90;;;;;;5018987;28;20073;-62
2023/05/22 07:40:25;;;;;;;30.98;24.05;;;18.00;99.90;;;;;;5049875;28;20474;-62
2023/05/22 07:42:51;;;;;;;26.63;22.33;;;17.90;99.90;;;;;;5031830;28;20082;-62
2023/05/22 07:45:17;;;;;;;30.10;21.98;;;17.90;99.90;;;;;;5031566;28;20076;-62
2023/05/22 07:47:43;;;;;;;28.25;22.73;;;17.90;99.90;;;;;;5030843;28;20082;-62
2023/05/22 07:50:08;;;;;;;26.38;21.02;;;17.90;99.90;;;;;;5031945;28;20037;-62
2023/05/22 07:52:34;;;;;;;29.63;21.27;;;17.90;99.90;;;;;;5033164;28;20041;-61
2023/05/22 07:55:00;;;;;;;28.77;22.23;;;17.90;99.90;;;;;;5032384;28;20037;-62
2023/05/22 07:57:25;;;;;;;26.73;21.70;;;17.90;99.90;;;;;;5024719;28;20071;-62
2023/05/22 07:59:51;;;;;;;25.50;20.85;;;17.90;99.90;;;;;;5047902;28;20045;-61
2023/05/22 08:02:17;;;;;;;25.75;20.10;;;17.90;99.90;;;;;;5025417;28;20029;-62
2023/05/22 08:04:43;;;;;;;27.58;19.98;;;17.90;99.90;;;;;;5044051;28;20471;-62
2023/05/22 08:07:09;;;;;;;24.25;19.67;;;18.00;99.90;;;;;;5057445;28;20059;-61
2023/05/22 08:09:34;;;;;;;22.55;19.98;;;17.90;99.90;;;;;;5034581;28;20037;-61
2023/05/22 08:12:00;;;;;;;22.23;18.98;;;18.00;99.90;;;;;;5052683;28;20106;-61
2023/05/22 08:14:26;;;;;;;23.95;19.27;;;18.00;99.90;;;;;;5046359;28;20035;-62
2023/05/22 08:16:51;;;;;;;26.50;19.90;;;18.10;99.90;;;;;;5053295;28;20148;-61
2023/05/22 08:19:17;;;;;;;22.25;19.08;;;18.10;99.90;;;;;;5053422;28;20487;-61
2023/05/22 08:21:42;;;;;;;23.15;17.80;;;18.20;99.90;;;;;;5052836;28;20452;-61
2023/05/22 08:24:08;;;;;;;25.23;19.35;;;18.30;99.90;;;;;;5043079;28;20120;-61
2023/05/22 08:26:33;;;;;;;21.42;17.30;;;18.30;99.90;;;;;;5053552;28;20163;-61
2023/05/22 08:28:59;;;;;;;21.33;17.58;;;18.40;99.90;;;;;;5053001;28;20111;-61
2023/05/22 08:31:28;;;;;;;20.00;16.23;;;18.50;99.90;;;;;;5058429;28;20043;-61
2023/05/22 08:34:01;;;;;;;19.95;16.42;;;18.50;99.90;;;;;;5054499;28;20087;-61
2023/05/22 08:36:28;;;;;;;;;;;18.60;99.90;;;;;;5050083;28;20041;-61
2023/05/22 08:38:54;;;;;;;24.60;15.98;;;18.60;99.90;;;;;;5054066;28;19923;-61
2023/05/22 08:41:20;;;;;;;21.88;16.40;;;18.70;99.90;;;;;;5058501;28;20483;-61
2023/05/22 08:43:46;;;;;;;21.65;15.63;;;18.80;99.90;;;;;;5052855;28;20041;-61
2023/05/22 08:46:15;;;;;;;18.40;14.30;;;19.00;99.90;;;;;;5031538;28;20037;-61
2023/05/22 08:48:41;;;;;;;19.08;14.65;;;19.20;99.90;;;;;;5049947;28;20044;-61
2023/05/22 08:51:07;;;;;;;22.48;14.85;;;19.40;99.90;;;;;;5047383;28;20064;-61
2023/05/22 08:53:37;;;;;;;21.25;15.00;;;19.60;99.90;;;;;;5053121;28;20033;-61
2023/05/22 08:56:07;;;;;;;22.52;13.77;;;19.80;99.90;;;;;;5025106;28;20047;-61
2023/05/22 08:58:34;;;;;;;20.00;14.43;;;20.20;99.90;;;;;;5049807;28;20072;-61
2023/05/22 09:01:01;;;;;;;17.85;13.38;;;20.40;99.90;;;;;;5031206;28;20040;-61
2023/05/22 09:03:31;;;;;;;18.65;14.00;;;20.70;99.90;;;;;;5052430;28;20041;-61
2023/05/22 09:06:00;;;;;;;21.65;13.75;;;21.00;99.90;;;;;;5031743;28;20065;-61
2023/05/22 09:08:27;;;;;;;17.35;12.55;;;21.20;99.90;;;;;;5034186;28;20040;-61
2023/05/22 09:10:56;;;;;;;18.05;11.93;;;21.50;99.90;;;;;;5052119;28;20577;-62
2023/05/22 09:13:29;;;;;;;18.70;12.70;;;21.70;99.90;;;;;;5048087;28;20037;-62
2023/05/22 09:16:06;;;;;;;19.42;13.23;;;21.80;99.90;;;;;;5050056;28;20452;-62
2023/05/22 09:18:31;;;;;;;18.10;12.82;;;22.00;99.90;;;;;;5051526;28;20048;-61
2023/05/22 09:20:57;;;;;;;17.80;11.73;;;22.10;99.90;;;;;;5051946;28;20045;-61
2023/05/22 09:23:26;;;;;;;14.43;11.90;;;22.20;99.90;;;;;;5048797;28;20059;-62
2023/05/22 09:25:57;;;;;;;21.40;12.90;;;22.30;99.90;;;;;;5033794;28;20033;-62
2023/05/22 09:28:24;;;;;;;17.52;12.00;;;22.50;99.90;;;;;;5033800;28;20032;-62
2023/05/22 09:30:50;;;;;;;17.98;11.07;;;22.70;99.90;;;;;;5050588;28;20440;-61
2023/05/22 09:33:17;;;;;;;15.57;10.95;;;22.90;99.90;;;;;;5051863;28;20051;-62
2023/05/22 09:35:45;;;;;;;18.05;11.38;;;23.00;99.90;;;;;;5050679;28;20089;-62
2023/05/22 09:38:12;;;;;;;15.77;11.05;;;23.20;99.90;;;;;;5031170;28;20041;-61
2023/05/22 09:40:39;;;;;;;16.77;11.95;;;23.30;99.90;;;;;;5018316;28;20045;-62
2023/05/22 09:43:11;;;;;;;14.63;10.45;;;23.40;99.90;;;;;;5029144;28;20403;-61
2023/05/22 09:45:38;;;;;;;16.83;10.90;;;23.60;99.90;;;;;;5051049;28;20395;-62
2023/05/22 09:48:05;;;;;;;16.08;10.00;;;23.70;99.90;;;;;;5031357;28;20037;-62
2023/05/22 09:50:31;;;;;;;17.40;10.95;;;23.90;99.90;;;;;;5062476;28;20064;-61
2023/05/22 09:53:02;;;;;;;16.70;11.68;;;24.20;99.90;;;;;;5034886;28;20047;-62
2023/05/22 09:55:28;;;;;;;;;;;24.30;99.90;;;;;;5028859;28;20052;-62
2023/05/22 09:57:55;;;;;;;14.68;10.35;;;24.50;99.90;;;;;;5050553;28;19920;-62
2023/05/22 10:00:22;;;;;;;16.33;11.25;;;24.70;99.90;;;;;;5051845;28;20131;-61
2023/05/22 10:03:04;;;;;;;15.45;11.60;;;24.90;99.90;;;;;;5059659;28;20078;-62
2023/05/22 10:05:31;;;;;;;15.23;11.15;;;25.00;99.90;;;;;;5039875;28;20146;-62
2023/05/22 10:08:03;;;;;;;14.02;10.57;;;25.10;99.90;;;;;;5028116;28;20037;-62
2023/05/22 10:10:29;;;;;;;19.05;11.85;;;25.10;99.90;;;;;;5039141;28;20041;-61
2023/05/22 10:13:03;;;;;;;16.45;11.63;;;25.20;99.90;;;;;;5027621;28;20044;-62
2023/05/22 10:15:32;;;;;;;13.40;10.98;;;25.30;99.90;;;;;;5046052;28;20095;-62
2023/05/22 10:17:58;;;;;;;18.02;12.35;;;25.40;99.90;;;;;;5028657;28;20187;-62
2023/05/22 10:20:25;;;;;;;15.73;11.02;;;25.40;99.90;;;;;;5036950;28;20079;-61
2023/05/22 10:22:53;;;;;;;16.77;11.68;;;25.50;99.90;;;;;;5032123;28;20404;-62
2023/05/22 10:25:20;;;;;;;16.83;10.95;;;25.60;99.90;;;;;;5045122;28;20033;-61
2023/05/22 10:27:48;;;;;;;15.73;11.30;;;25.70;99.90;;;;;;5014183;28;20048;-61
2023/05/22 10:30:41;;;;;;;16.38;12.55;;;25.80;99.90;;;;;;5036882;28;20045;-62
2023/05/22 10:33:10;;;;;;;22.40;13.02;;;25.90;99.90;;;;;;5019620;28;20036;-62
2023/05/22 10:35:39;;;;;;;20.52;12.70;;;25.90;99.90;;;;;;5024718;28;20067;-61
2023/05/22 10:38:46;;;;;;;16.48;12.65;;;26.00;99.90;;;;;;5034448;28;20487;-61
2023/05/22 10:41:12;;;;;;;24.52;13.80;;;26.10;99.90;;;;;;5004994;28;20053;-62
2023/05/22 10:43:43;;;;;;;17.38;12.55;;;26.00;99.90;;;;;;5025523;28;20049;-61
2023/05/22 10:46:11;;;;;;;15.68;10.95;;;26.10;99.90;;;;;;5038614;28;20029;-62
2023/05/22 10:48:46;;;;;;;16.98;12.23;;;26.10;99.90;;;;;;5022303;28;20054;-62
2023/05/22 10:51:15;;;;;;;18.67;13.10;;;26.10;99.90;;;;;;5036706;28;20611;-62
2023/05/22 10:53:43;;;;;;;17.80;11.65;;;26.10;99.90;;;;;;5041298;28;20041;-62
2023/05/22 10:56:14;;;;;;;17.20;12.95;;;26.30;99.90;;;;;;5018113;28;20434;-62
2023/05/22 10:58:54;;;;;;;17.42;12.63;;;26.40;99.90;;;;;;5035808;28;20043;-62
2023/05/22 11:01:20;;;;;;;16.67;13.20;;;26.50;99.90;;;;;;5015915;28;20045;-62
2023/05/22 11:04:04;;;;;;;15.05;12.00;;;26.60;99.90;;;;;;5039670;28;20136;-62
2023/05/22 11:06:44;;;;;;;16.95;12.40;;;26.70;99.90;;;;;;5015554;28;20554;-63
2023/05/22 11:09:31;;;;;;;17.47;13.73;;;26.90;99.90;;;;;;5038866;28;20140;-62
2023/05/22 11:12:21;;;;;;;17.50;13.25;;;27.00;99.90;;;;;;5022747;28;20036;-62
2023/05/22 11:14:48;;;;;;;17.27;12.88;;;27.10;99.90;;;;;;5014720;28;20037;-62
2023/05/22 11:17:18;;;;;;;17.42;12.50;;;27.10;99.90;;;;;;5009229;28;20028;-62
2023/05/22 11:19:46;;;;;;;18.97;12.93;;;27.20;99.90;;;;;;5037725;28;20044;-62
2023/05/22 11:22:13;;;;;;;15.40;12.98;;;27.10;99.90;;;;;;5020672;28;20041;-62
2023/05/22 11:24:40;;;;;;;18.25;12.82;;;27.10;99.90;;;;;;5005669;28;20367;-62
2023/05/22 11:27:06;;;;;;;17.15;12.55;;;27.10;99.90;;;;;;5019166;28;20037;-62
2023/05/22 11:29:32;;;;;;;14.90;13.20;;;27.20;99.90;;;;;;5041398;28;20037;-62
2023/05/22 11:31:58;;;;;;;16.27;12.55;;;27.30;99.90;;;;;;5025153;28;20448;-62
2023/05/22 11:34:25;;;;;;;15.73;12.18;;;27.50;99.90;;;;;;5040220;28;20518;-62
2023/05/22 11:36:58;;;;;;;21.25;11.82;;;27.60;99.90;;;;;;5023570;28;20130;-62
2023/05/22 11:39:24;;;;;;;19.20;12.57;;;27.70;99.90;;;;;;5021904;28;20555;-62
2023/05/22 11:41:50;;;;;;;18.67;15.50;;;27.80;99.90;;;;;;5038950;28;20875;-62
2023/05/22 11:44:16;;;;;;;19.50;14.93;;;27.80;99.90;;;;;;5037418;28;20040;-62
2023/05/22 11:46:42;;;;;;;18.20;13.65;;;27.60;99.90;;;;;;5020734;28;20109;-62
2023/05/22 11:49:12;;;;;;;14.20;12.63;;;27.40;99.90;;;;;;5003393;28;20048;-62
2023/05/22 11:51:41;;;;;;;18.58;14.85;;;27.50;99.90;;;;;;5017640;28;20145;-62
2023/05/22 11:54:06;;;;;;;14.38;12.85;;;27.60;99.90;;;;;;5040819;28;20079;-62
2023/05/22 11:56:32;;;;;;;15.00;12.18;;;27.60;99.90;;;;;;5037674;28;20666;-62
2023/05/22 11:58:58;;;;;;;14.88;13.25;;;27.70;99.90;;;;;;5041217;28;20062;-62
2023/05/22 12:01:23;;;;;;;19.08;12.52;;;27.80;99.90;;;;;;5044438;28;20045;-62
2023/05/22 12:03:49;;;;;;;15.77;13.10;;;27.90;99.90;;;;;;5024588;28;20091;-62
2023/05/22 12:06:16;;;;;;;16.65;12.73;;;27.90;99.90;;;;;;5039278;28;20033;-62
2023/05/22 12:08:42;;;;;;;15.02;12.50;;;28.00;99.90;;;;;;5036986;28;20118;-63
2023/05/22 12:11:10;;;;;;;13.98;12.13;;;28.00;99.90;;;;;;5042257;28;20122;-62
2023/05/22 12:13:36;;;;;;;16.58;14.43;;;28.10;99.90;;;;;;5023743;28;20126;-62
2023/05/22 12:16:21;;;;;;;17.63;13.93;;;28.20;99.90;;;;;;5038521;28;20118;-62
2023/05/22 12:18:50;;;;;;;16.13;13.68;;;28.10;99.10;;;;;;5039683;28;20043;-62
2023/05/22 12:21:18;;;;;;;16.33;13.20;;;28.00;99.80;;;;;;5039879;23;20166;-61
2023/05/22 12:23:48;;;;;;;13.80;12.40;;;27.90;99.80;;;;;;5041052;28;20050;-61
2023/05/22 12:26:14;;;;;;;19.27;13.82;;;27.90;99.80;;;;;;5022221;28;20044;-61
2023/05/22 12:28:40;;;;;;;14.80;12.70;;;27.90;99.20;;;;;;5040808;28;20048;-61
2023/05/22 12:31:06;;;;;;;16.45;12.90;;;27.90;99.20;;;;;;5039815;28;20090;-61
2023/05/22 12:33:31;;;;;;;14.10;11.98;;;27.90;99.50;;;;;;5044791;28;20029;-61